Wentworth, South Dakota
Current Conditions -  °F | °C
As of 3:15 PM on Monday 24 Nov 2014 (Local Time) from KMDS Reporting Station
Overcast Overcast  
Wind Chill:   Ceiling: 2200
Heat Index: 23°   Visibility: 10mi
Dew Point: 14°   Wind: 23mph
Humidity: 68%   Direction: 330°NNW
Pressure: 29.8"   Gusts: 37mph
Location:  44°N, 96.96°W
Report Text: KMDS 242115Z AUTO 33020G32KT 10SM OVC022 M05/M10 A2980 RMK AO2
Loading
Personal Weather Stations






























Interactive Weather Map New forecast layout! Learn more

10-Day Weather Forecast

Advertisements
Track Severe Weather on mobile